createdAt,value
2018-09-23T00:04:42.553Z,12.60
2018-09-23T00:09:46.092Z,12.60
2018-09-23T00:14:49.817Z,12.60
2018-09-23T00:19:53.250Z,12.60
2018-09-23T00:24:56.777Z,12.60
2018-09-23T00:30:00.466Z,12.50
2018-09-23T00:35:03.846Z,12.50
2018-09-23T00:40:07.320Z,12.50
2018-09-23T00:45:10.810Z,12.50
2018-09-23T00:50:14.352Z,12.50
2018-09-23T00:55:17.788Z,12.40
2018-09-23T01:00:21.177Z,12.40
2018-09-23T01:05:24.584Z,12.50
2018-09-23T01:10:28.059Z,12.50
2018-09-23T01:15:31.421Z,12.40
2018-09-23T01:20:35.121Z,12.40
2018-09-23T01:25:39.501Z,12.40
2018-09-23T01:30:42.892Z,12.50
2018-09-23T01:35:46.352Z,12.40
2018-09-23T01:40:49.857Z,12.40
2018-09-23T01:45:53.249Z,12.50
2018-09-23T01:50:56.661Z,12.50
2018-09-23T01:56:00.002Z,12.50
2018-09-23T02:01:03.506Z,12.50
2018-09-23T02:06:07.041Z,12.50
2018-09-23T02:11:10.333Z,12.40
2018-09-23T02:16:14.073Z,12.50
2018-09-23T02:21:17.464Z,12.40
2018-09-23T02:26:20.764Z,12.40
2018-09-23T02:31:24.357Z,12.30
2018-09-23T02:36:27.825Z,12.30
2018-09-23T02:41:31.244Z,12.20
2018-09-23T02:46:34.775Z,12.20
2018-09-23T02:51:38.137Z,12.20
2018-09-23T02:56:41.600Z,12.00
2018-09-23T03:01:44.934Z,11.90
2018-09-23T03:06:48.287Z,11.90
2018-09-23T03:21:58.889Z,11.80
2018-09-23T03:27:02.399Z,11.70
2018-09-23T03:32:05.682Z,11.60
2018-09-23T03:37:09.018Z,11.60
2018-09-23T03:42:12.470Z,11.50
2018-09-23T03:47:15.904Z,11.50
2018-09-23T03:52:19.237Z,11.50
2018-09-23T03:57:22.680Z,11.50
2018-09-23T04:02:25.969Z,11.50
2018-09-23T04:07:29.253Z,11.50
2018-09-23T04:12:32.760Z,11.40
2018-09-23T04:17:36.366Z,11.40
2018-09-23T04:22:51.058Z,11.40
2018-09-23T04:27:54.542Z,11.40
2018-09-23T04:32:57.952Z,11.50
2018-09-23T04:38:01.297Z,11.40
2018-09-23T04:43:04.706Z,11.40
2018-09-23T04:48:07.967Z,11.30
2018-09-23T04:53:11.564Z,11.30
2018-09-23T04:58:15.060Z,11.30
2018-09-23T05:03:18.521Z,11.20
2018-09-23T05:08:21.907Z,11.20
2018-09-23T05:13:25.206Z,11.10
2018-09-23T05:18:28.512Z,11.20
2018-09-23T05:23:32.130Z,11.30
2018-09-23T05:28:35.520Z,11.30
2018-09-23T05:33:38.843Z,11.20
2018-09-23T05:38:42.145Z,11.20
2018-09-23T05:43:45.449Z,11.30
2018-09-23T05:48:48.893Z,11.40
2018-09-23T05:53:52.406Z,11.40
2018-09-23T05:58:55.722Z,11.30
2018-09-23T06:03:59.041Z,11.30
2018-09-23T06:09:02.571Z,11.30
2018-09-23T06:14:06.021Z,11.40
2018-09-23T06:19:09.611Z,11.40
2018-09-23T06:24:13.033Z,11.40
2018-09-23T06:29:16.597Z,11.40
2018-09-23T06:34:19.983Z,11.40
2018-09-23T06:39:23.340Z,11.40
2018-09-23T06:44:26.857Z,11.50
2018-09-23T06:49:30.485Z,11.60
2018-09-23T06:54:33.868Z,11.60
2018-09-23T06:59:37.161Z,11.60
2018-09-23T07:04:40.590Z,11.70
2018-09-23T07:09:43.886Z,11.60
2018-09-23T07:14:47.350Z,11.70
2018-09-23T07:19:50.840Z,11.60
2018-09-23T07:24:54.134Z,11.80
2018-09-23T07:29:57.575Z,11.90
2018-09-23T07:35:00.957Z,12.00
2018-09-23T07:40:04.568Z,12.00
2018-09-23T07:45:08.037Z,12.00
2018-09-23T07:50:11.549Z,12.10
2018-09-23T07:55:15.059Z,12.10
2018-09-23T08:00:18.578Z,12.20
2018-09-23T08:05:22.033Z,12.20
2018-09-23T08:10:25.518Z,12.30
2018-09-23T08:15:28.839Z,12.40
2018-09-23T08:20:33.405Z,12.40
2018-09-23T08:25:36.877Z,12.50
2018-09-23T08:30:40.158Z,12.50
2018-09-23T08:35:43.621Z,12.60
2018-09-23T08:40:47.025Z,12.60
2018-09-23T08:45:50.553Z,12.60
2018-09-23T08:50:54.040Z,12.70
2018-09-23T08:55:57.329Z,12.70
2018-09-23T09:01:00.808Z,12.70
2018-09-23T09:06:04.186Z,12.70
2018-09-23T09:11:07.697Z,12.80
2018-09-23T09:16:11.658Z,12.80
2018-09-23T09:21:15.268Z,12.80
2018-09-23T09:26:18.748Z,12.80
2018-09-23T09:31:22.056Z,12.90
2018-09-23T09:36:25.522Z,13.00
2018-09-23T09:41:28.938Z,13.00
2018-09-23T09:46:32.437Z,13.10
2018-09-23T09:51:35.761Z,13.20
2018-09-23T09:56:39.119Z,13.30
2018-09-23T10:01:43.150Z,13.40
2018-09-23T10:06:46.548Z,13.50
2018-09-23T10:11:49.945Z,13.50
2018-09-23T10:16:53.342Z,13.60
2018-09-23T10:21:56.766Z,13.70
2018-09-23T10:27:00.137Z,13.80
2018-09-23T10:32:03.451Z,13.90
2018-09-23T10:37:06.800Z,14.10
2018-09-23T10:42:10.254Z,14.20
2018-09-23T10:47:13.797Z,14.30
2018-09-23T10:52:17.167Z,14.40
2018-09-23T10:57:20.530Z,14.60
2018-09-23T11:02:24.974Z,14.70
2018-09-23T11:07:28.379Z,14.80
2018-09-23T11:12:31.713Z,14.90
2018-09-23T11:17:35.202Z,15.10
2018-09-23T11:22:38.656Z,15.20
2018-09-23T11:27:42.104Z,15.30
2018-09-23T11:32:45.468Z,15.40
2018-09-23T11:37:49.117Z,15.40
2018-09-23T11:42:52.552Z,15.60
2018-09-23T11:47:55.918Z,15.60
2018-09-23T11:58:02.393Z,15.70
2018-09-23T12:03:05.974Z,15.90
2018-09-23T12:08:09.340Z,16.00
2018-09-23T12:13:12.802Z,16.10
2018-09-23T12:18:16.233Z,16.20
2018-09-23T12:23:19.825Z,16.30
2018-09-23T12:28:23.321Z,16.40
2018-09-23T12:33:26.876Z,16.50
2018-09-23T12:38:31.124Z,16.60
2018-09-23T12:43:35.510Z,16.60
2018-09-23T12:48:38.860Z,16.70
2018-09-23T12:53:42.275Z,16.80
2018-09-23T12:58:45.800Z,16.90
2018-09-23T13:03:49.340Z,17.00
2018-09-23T13:08:54.952Z,17.00
2018-09-23T13:13:58.512Z,17.10
2018-09-23T13:19:01.986Z,17.20
2018-09-23T13:24:05.555Z,17.30
2018-09-23T13:29:09.246Z,17.40
2018-09-23T13:34:13.445Z,17.50
2018-09-23T13:39:17.118Z,17.70
2018-09-23T13:44:20.727Z,17.70
2018-09-23T13:49:24.237Z,17.80
2018-09-23T13:54:27.811Z,17.90
2018-09-23T13:59:31.484Z,18.00
2018-09-23T14:04:34.944Z,18.00
2018-09-23T14:09:38.641Z,18.00
2018-09-23T14:14:42.501Z,18.10
2018-09-23T14:19:46.155Z,18.20
2018-09-23T14:24:49.731Z,18.60
2018-09-23T14:29:53.418Z,19.00
2018-09-23T14:34:57.159Z,19.20
2018-09-23T14:40:00.650Z,19.40
2018-09-23T14:45:04.367Z,19.70
2018-09-23T14:50:08.198Z,19.70
2018-09-23T14:55:11.883Z,19.80
2018-09-23T15:00:15.557Z,19.90
2018-09-23T15:05:18.995Z,19.90
2018-09-23T15:10:22.723Z,19.90
2018-09-23T15:15:26.199Z,19.90
2018-09-23T15:20:29.745Z,20.00
2018-09-23T15:25:33.632Z,20.00
2018-09-23T15:30:37.174Z,20.00
2018-09-23T15:35:40.722Z,20.00
2018-09-23T15:40:44.162Z,20.00
2018-09-23T15:45:47.590Z,20.30
2018-09-23T15:50:50.986Z,20.40
2018-09-23T15:55:54.439Z,20.50
2018-09-23T16:00:57.822Z,20.50
2018-09-23T16:06:01.281Z,20.60
2018-09-23T16:11:05.841Z,20.50
2018-09-23T16:16:09.288Z,20.50
2018-09-23T16:21:12.996Z,20.40
2018-09-23T16:26:16.657Z,20.40
2018-09-23T16:31:19.953Z,20.40
2018-09-23T16:36:23.385Z,20.50
2018-09-23T16:41:26.866Z,20.50
2018-09-23T16:46:30.466Z,21.00
2018-09-23T16:51:33.995Z,21.40
2018-09-23T16:56:37.436Z,21.70
2018-09-23T17:01:40.721Z,21.50
2018-09-23T17:06:44.269Z,17.80
2018-09-23T17:11:47.596Z,16.10
2018-09-23T17:16:51.032Z,15.90
2018-09-23T17:21:54.384Z,15.50
2018-09-23T17:26:57.668Z,15.20
2018-09-23T17:32:01.032Z,15.10
2018-09-23T17:37:04.606Z,15.00
2018-09-23T17:42:08.171Z,14.90
2018-09-23T17:47:11.748Z,14.90
2018-09-23T17:52:15.277Z,14.80
2018-09-23T17:57:18.565Z,14.80
2018-09-23T18:02:22.057Z,14.90
2018-09-23T18:07:25.383Z,14.80
2018-09-23T18:12:28.897Z,14.90
2018-09-23T18:17:32.281Z,14.90
2018-09-23T18:22:35.629Z,14.70
2018-09-23T18:27:39.063Z,14.80
2018-09-23T18:32:42.481Z,14.70
2018-09-23T18:37:47.515Z,14.70
2018-09-23T18:42:51.083Z,14.70
2018-09-23T18:47:54.430Z,14.60
2018-09-23T18:53:03.186Z,14.60
2018-09-23T18:58:06.606Z,14.50
2018-09-23T19:08:13.298Z,14.40
2018-09-23T19:13:21.869Z,14.30
2018-09-23T19:18:25.436Z,14.20
2018-09-23T19:23:28.746Z,14.30
2018-09-23T19:28:32.468Z,14.20
2018-09-23T19:33:36.070Z,14.20
2018-09-23T19:38:39.997Z,14.20
2018-09-23T19:43:43.666Z,14.20
2018-09-23T19:48:47.286Z,14.20
2018-09-23T20:03:57.709Z,14.30
2018-09-23T20:09:01.497Z,14.30
2018-09-23T20:14:04.841Z,14.20
2018-09-23T20:19:08.935Z,14.10
2018-09-23T20:24:12.842Z,14.00
2018-09-23T20:29:16.569Z,14.00
2018-09-23T20:34:20.077Z,13.80
2018-09-23T20:39:23.833Z,13.70
2018-09-23T20:44:28.212Z,13.50
2018-09-23T20:49:32.520Z,13.20
2018-09-23T20:54:35.875Z,12.60
2018-09-23T20:59:39.643Z,12.50
2018-09-23T21:04:43.081Z,12.10
2018-09-23T21:09:46.525Z,11.70
2018-09-23T21:14:50.203Z,11.50
2018-09-23T21:19:54.291Z,10.80
2018-09-23T21:24:57.851Z,10.40
2018-09-23T21:30:01.726Z,10.30
2018-09-23T21:35:06.433Z,10.20
2018-09-23T21:40:10.286Z,10.00
2018-09-23T21:45:13.780Z,10.00
2018-09-23T21:50:18.566Z,9.90
2018-09-23T21:55:23.441Z,9.80
2018-09-23T22:00:32.973Z,9.70
2018-09-23T22:05:36.868Z,9.60
2018-09-23T22:10:41.718Z,9.60
2018-09-23T22:15:48.031Z,9.60
2018-09-23T22:20:52.915Z,9.50
2018-09-23T22:25:56.576Z,9.50
2018-09-23T22:31:00.052Z,9.50
2018-09-23T22:36:03.844Z,9.60
2018-09-23T22:41:07.630Z,9.60
2018-09-23T22:46:11.106Z,9.60
2018-09-23T22:51:15.533Z,9.70
2018-09-23T22:56:19.182Z,9.60
2018-09-23T23:01:22.829Z,9.60
2018-09-23T23:06:26.161Z,9.60
2018-09-23T23:11:29.631Z,9.60
2018-09-23T23:16:32.974Z,9.60
2018-09-23T23:21:36.592Z,9.50
2018-09-23T23:26:39.930Z,9.50
2018-09-23T23:31:43.265Z,9.50
2018-09-23T23:36:46.983Z,9.50
2018-09-23T23:41:50.534Z,9.40
2018-09-23T23:46:54.093Z,9.40
2018-09-23T23:51:57.532Z,9.30
2018-09-23T23:57:01.020Z,9.30
